Ardmore, Oklahoma
Current Conditions -  °F | °C
As of 3:15 AM on Sunday 21 Dec 2014 (Local Time) from K1F0 Reporting Station
Overcast Overcast  
Wind Chill:   Ceiling: 500
Heat Index:   Visibility: 7mi
Dew Point:   Wind: 3mph
Humidity: 93%   Direction: 180°S
Pressure: 30.12"   Gusts: NA
Location:  34.17°N, 97.13°W
Report Text: K1F0 210915Z AUTO 18003KT 7SM OVC005 07/06 A3012 RMK AO2
Loading
Personal Weather Stations






























Interactive Weather Map New forecast layout! Learn more

10-Day Weather Forecast

Advertisements
Track Severe Weather on mobile